Nearby METAR Reports

 

KPIA - Peoria, Illinois, USA
Distance from station: SSW 11mi, 18km
Updated: 02/23/2024 8:54pm
Light rain, Overcast
Light rain, Overcast
 Wind from N
Wind: N 13 mph , 20 km/h, Gust: 25 mph , 41 km/h
Temperature: 43°F , 6°C
Wind Chill: 36°F , 2°C
Dew Point: 34°F , 1°C
Humidity: 71%
Barometer: 29.82 inHg , 1009.8 hPa
Summary: Light rain
Clouds: Overcast
Visibility: 10 miles , 16 km
Cloud details: Partly cloudy 2700 ft
Mostly cloudy 3200 ft
Overcast 3900 ft
2024/02/24 02:54 KPIA 240254Z 36011G22KT 10SM -RA SCT027 BKN032 OVC039 06/01 A2982 RMK AO2 RAB32 SLP102 P0000 60000 T00610006 53031
KC75 - Lacon, Illinois, USA
Distance from station: NE 18mi, 30km
Updated: 02/23/2024 8:55pm
Overcast
Overcast
 Wind from NE
Wind: NE 8 mph , 13 km/h, Gust: 17 mph , 28 km/h
Temperature: 36°F , 2°C
Wind Chill: 30°F , -1°C
Dew Point: 32°F , 0°C
Humidity: 87%
Barometer: 29.83 inHg , 1010.2 hPa
Clouds: Overcast
Visibility: 10 miles , 16 km
Cloud details: Overcast 1400 ft
2024/02/24 02:55 KC75 240255Z AUTO 04007G15KT 320V050 10SM OVC014 02/00 A2983 RMK AO2 T00231005
 
KGBG - Galesburg, Illinois, USA
Distance from station: W 43mi, 69km
Updated: 02/23/2024 8:55pm
Overcast
Overcast
 Wind from NW
Wind: NW 14 mph , 22 km/h, Gust: 22 mph , 35 km/h
Temperature: 41°F , 5°C
Wind Chill: 33°F , 1°C
Dew Point: 34°F , 1°C
Humidity: 76%
Barometer: 29.86 inHg , 1011.2 hPa
Clouds: Overcast
Visibility: 10 miles , 16 km
Cloud details: Mostly cloudy 3300 ft
Overcast 4100 ft
2024/02/24 02:55 KGBG 240255Z AUTO 32012G19KT 10SM BKN033 OVC041 05/01 A2986 RMK AO2 T00480011 TSNO
KBMI - Bloomington/Norm, Illinois, USA
Distance from station: ESE 44mi, 71km
Updated: 02/23/2024 8:56pm
Light rain, Overcast
Light rain, Overcast
 Wind from N
Wind: N 18 mph , 30 km/h, Gust: 24 mph , 39 km/h
Temperature: 41°F , 5°C
Wind Chill: 32°F , 0°C
Dew Point: 36°F , 2°C
Humidity: 81%
Barometer: 29.78 inHg , 1008.5 hPa
Summary: Light rain
Clouds: Overcast
Visibility: 10 miles , 16 km
Cloud details: Mostly cloudy 5000 ft
Overcast 6500 ft
2024/02/24 02:56 KBMI 240256Z 01016G21KT 10SM -RA BKN050 OVC065 05/02 A2978 RMK AO2 RAB56 SLP087 P0000 60000 T00500022 53024
 
KVYS - Peru, Illinois, USA
Distance from station: NNE 44mi, 71km
Updated: 02/23/2024 8:55pm
Light drizzle, Overcast
Light drizzle, Overcast
 Wind from NNE
Wind: NNE 18 mph , 30 km/h, Gust: 26 mph , 43 km/h
Temperature: 34°F , 1°C
Wind Chill: 23°F , -5°C
Dew Point: 28°F , -2°C
Humidity: 81%
Barometer: 29.85 inHg , 1010.8 hPa
Summary: Light Drizzle
Clouds: Overcast
Visibility: 10 miles , 16 km
Cloud details: Mostly cloudy 1300 ft
Overcast 2100 ft
2024/02/24 02:55 KVYS 240255Z AUTO 03016G23KT 10SM -DZ BKN013 OVC021 01/M02 A2985 RMK AO2 T00051022 TSNO
KAAA - Lincoln, Illinois, USA
Distance from station: SSE 48mi, 77km
Updated: 02/23/2024 8:55pm
Overcast
Overcast
 Wind from NW
Wind: NW 8 mph , 13 km/h
Temperature: 48°F , 9°C
Wind Chill: 44°F , 7°C
Dew Point: 32°F , 0°C
Humidity: 54%
Barometer: 29.78 inHg , 1008.5 hPa
Clouds: Overcast
Visibility: 10 miles , 16 km
Cloud details: Partly cloudy 5000 ft
Mostly cloudy 7000 ft
Overcast 9000 ft
2024/02/24 02:55 KAAA 240255Z AUTO 31007KT 10SM SCT050 BKN070 OVC090 09/00 A2978 RMK AO2 T00920000
 
KPNT - Pontiac, Illinois, USA
Distance from station: E 53mi, 85km
Updated: 02/23/2024 8:55pm
Overcast
Overcast
 Wind from N
Wind: N 15 mph , 24 km/h
Temperature: 37°F , 3°C
Wind Chill: 28°F , -2°C
Dew Point: 34°F , 1°C
Humidity: 87%
Barometer: 29.79 inHg , 1008.8 hPa
Clouds: Overcast
Visibility: 10 miles , 16 km
Cloud details: Overcast 1000 ft
2024/02/24 02:55 KPNT 240255Z AUTO 01013KT 10SM OVC010 03/01 A2979 RMK AO2 T00250005
KMQB - Macomb Muni, Illinois, USA
Distance from station: WSW 58mi, 93km
Updated: 02/23/2024 8:55pm
Overcast
Overcast
 Wind from NNW
Wind: NNW 15 mph , 24 km/h
Temperature: 41°F , 5°C
Wind Chill: 33°F , 1°C
Dew Point: 32°F , 0°C
Humidity: 70%
Barometer: 29.88 inHg , 1011.9 hPa
Clouds: Overcast
Visibility: 10 miles , 16 km
Cloud details: Mostly cloudy 4900 ft
Overcast 5500 ft
2024/02/24 02:55 KMQB 240255Z AUTO 33013KT 10SM BKN049 OVC055 05/00 A2988 RMK AO2 T00450004
 
KMLI - Moline/Quad City, Illinois, USA
Distance from station: NW 64mi, 103km
Updated: 02/23/2024 8:52pm
Overcast
Overcast
 Wind from NNW
Wind: NNW 17 mph , 28 km/h, Gust: 29 mph , 46 km/h
Temperature: 41°F , 5°C
Wind Chill: 33°F , 1°C
Dew Point: 28°F , -2°C
Humidity: 61%
Barometer: 29.86 inHg , 1011.2 hPa
Clouds: Overcast
Visibility: 10 miles , 16 km
Cloud details: Partly cloudy 3200 ft
Mostly cloudy 4300 ft
Overcast 5000 ft
2024/02/24 02:52 KMLI 240252Z 34015G25KT 10SM SCT032 BKN043 OVC050 05/M02 A2986 RMK AO2 SLP114 T00501017 51038
KSQI - Sterling Rockfal, Illinois, USA
Distance from station: N 64mi, 103km
Updated: 02/23/2024 8:56pm
Overcast
Overcast
 Wind from NNE
Wind: NNE 16 mph , 26 km/h, Gust: 25 mph , 41 km/h
Temperature: 30°F , -1°C
Wind Chill: 19°F , -7°C
Dew Point: 27°F , -3°C
Humidity: 86%
Barometer: 29.90 inHg , 1012.5 hPa
Clouds: Overcast
Visibility: 10 miles , 16 km
Cloud details: Overcast 1500 ft
2024/02/24 02:56 KSQI 240256Z AUTO 03014G22KT 10SM UP OVC015 M01/M03 A2990 RMK AO2 UPB07E12B32RAB12E32SNE07 SLP993 6//// T10111028 51036 FZRANO PNO $
 
KSPI - Springfield, Illinois, USA
Distance from station: S 67mi, 108km
Updated: 02/23/2024 8:52pm
Overcast
Overcast
 Wind from NNW
Wind: NNW 25 mph , 41 km/h, Gust: 41 mph , 67 km/h
Temperature: 50°F , 10°C
Wind Chill: 43°F , 6°C
Dew Point: 28°F , -2°C
Humidity: 43%
Barometer: 29.80 inHg , 1009.1 hPa
Clouds: Overcast
Visibility: 10 miles , 16 km
Cloud details: Mostly cloudy 7000 ft
Overcast 8000 ft
2024/02/24 02:52 KSPI 240252Z 33022G36KT 10SM BKN070 OVC080 10/M02 A2980 RMK AO2 PK WND 34036/0251 SLP093 T01001017 53025
KDVN - Davenport/Quad C, Iowa, USA
Distance from station: NW 74mi, 120km
Updated: 02/23/2024 8:52pm
Overcast
Overcast
 Wind from NNW
Wind: NNW 20 mph , 31 km/h
Temperature: 37°F , 3°C
Wind Chill: 27°F , -3°C
Dew Point: 27°F , -3°C
Humidity: 65%
Barometer: 29.89 inHg , 1012.2 hPa
Clouds: Overcast
Visibility: 10 miles , 16 km
Cloud details: Few Clouds 3000 ft
Partly cloudy 4200 ft
Overcast 7500 ft
2024/02/24 02:52 KDVN 240252Z AUTO 34017KT 10SM FEW030 SCT042 OVC075 03/M03 A2989 RMK AO2 PK WND 34029/0225 SLP124 T00331028 51037